Time;durP1;ratioP1;P1;durP2;ratioP2;P2;SDS_P1;SDS_P2;PMS_P1;PMS_P2;Temp;Humidity;BMP_temperature;BMP_pressure;BME280_temperature;BME280_humidity;BME280_pressure;Samples;Min_cycle;Max_cycle;Signal;HPM_P1;HPM_P2
2022/11/10 00:00:19;;;;;;;13.57;3.90;;;;;;;;;;5068250;28;20103;-76
2022/11/10 00:02:44;;;;;;;10.25;3.75;;;;;;;;;;5069893;28;20095;-76
2022/11/10 00:05:10;;;;;;;12.98;3.53;;;;;;;;;;5068619;28;20476;-76
2022/11/10 00:07:35;;;;;;;11.05;3.45;;;;;;;;;;5074003;28;20527;-77
2022/11/10 00:10:01;;;;;;;8.45;3.28;;;;;;;;;;5074975;28;20028;-75
2022/11/10 00:12:26;;;;;;;16.60;4.00;;;;;;;;;;5079777;28;20483;-74
2022/11/10 00:17:35;;;;;;;11.88;2.95;;;;;;;;;;5070559;28;20071;-75
2022/11/10 00:20:01;;;;;;;15.85;3.67;;;;;;;;;;5069379;28;20020;-76
2022/11/10 00:22:26;;;;;;;7.82;3.17;;;;;;;;;;5068026;28;20033;-74
2022/11/10 00:24:51;;;;;;;8.65;3.25;;;;;;;;;;5064601;28;20028;-74
2022/11/10 00:27:16;;;;;;;9.93;3.45;;;;;;;;;;5069878;28;20532;-74
2022/11/10 00:29:42;;;;;;;11.50;3.67;;;;;;;;;;5069441;28;20046;-77
2022/11/10 00:32:07;;;;;;;9.10;2.90;;;;;;;;;;5069645;28;20353;-74
2022/11/10 00:34:33;;;;;;;11.10;4.00;;;;;;;;;;5071418;28;20023;-74
2022/11/10 00:36:58;;;;;;;20.33;4.05;;;;;;;;;;5088450;28;20075;-75
2022/11/10 00:39:23;;;;;;;10.43;3.75;;;;;;;;;;5075141;28;20463;-74
2022/11/10 00:41:48;;;;;;;14.53;3.50;;;;;;;;;;5081356;28;20024;-75
2022/11/10 00:44:13;;;;;;;12.45;3.55;;;;;;;;;;5064326;28;20283;-74
2022/11/10 00:46:39;;;;;;;10.00;3.53;;;;;;;;;;5064446;28;20024;-75
2022/11/10 00:49:04;;;;;;;10.48;3.83;;;;;;;;;;5067765;28;20012;-75
2022/11/10 00:51:29;;;;;;;10.52;3.45;;;;;;;;;;5068271;28;20055;-74
2022/11/10 00:53:55;;;;;;;10.85;4.13;;;;;;;;;;5078252;28;20028;-75
2022/11/10 00:56:20;;;;;;;12.95;3.72;;;;;;;;;;5062264;28;20029;-74
2022/11/10 00:58:46;;;;;;;9.13;3.60;;;;;;;;;;5053578;28;20471;-74
2022/11/10 01:01:12;;;;;;;10.93;3.67;;;;;;;;;;5077912;28;20695;-74
2022/11/10 01:03:37;;;;;;;7.85;3.17;;;;;;;;;;5081517;28;20025;-75
2022/11/10 01:06:13;;;;;;;10.75;3.72;;;;;;;;;;5093586;28;20029;-75
2022/11/10 01:08:39;;;;;;;12.98;3.97;;;;;;;;;;5067290;28;20024;-75
2022/11/10 01:11:09;;;;;;;13.93;3.55;;;;;;;;;;5076192;28;20096;-76
2022/11/10 01:13:35;;;;;;;9.82;3.42;;;;;;;;;;5084260;28;20032;-76
2022/11/10 01:16:04;;;;;;;9.57;3.83;;;;;;;;;;5078136;28;20025;-76
2022/11/10 01:18:29;;;;;;;8.73;4.10;;;;;;;;;;5084389;28;20494;-75
2022/11/10 01:20:55;;;;;;;11.05;3.35;;;;;;;;;;5072789;28;20016;-76
2022/11/10 01:23:20;;;;;;;8.48;3.70;;;;;;;;;;5077837;28;20368;-75
2022/11/10 01:25:45;;;;;;;18.90;3.80;;;;;;;;;;5071950;28;20024;-76
2022/11/10 01:28:10;;;;;;;13.18;5.03;;;;;;;;;;5078102;28;20023;-74
2022/11/10 01:30:36;;;;;;;9.20;3.20;;;;;;;;;;5061997;28;20116;-75
2022/11/10 01:33:01;;;;;;;9.43;4.43;;;;;;;;;;5068780;28;20278;-74
2022/11/10 01:35:26;;;;;;;12.00;3.80;;;;;;;;;;5071401;28;20369;-74
2022/11/10 01:37:52;;;;;;;8.93;3.05;;;;;;;;;;5087790;28;20056;-76
2022/11/10 01:40:17;;;;;;;12.70;3.63;;;;;;;;;;5071898;28;20471;-76
2022/11/10 01:42:47;;;;;;;11.10;4.07;;;;;;;;;;5072220;28;20055;-76
2022/11/10 01:45:21;;;;;;;12.70;3.42;;;;;;;;;;5072069;28;20024;-76
2022/11/10 01:47:46;;;;;;;19.58;5.32;;;;;;;;;;5068211;28;20364;-76
2022/11/10 01:50:12;;;;;;;10.68;4.35;;;;;;;;;;5072119;28;20085;-77
2022/11/10 01:52:37;;;;;;;8.45;3.28;;;;;;;;;;5067016;28;20483;-75
2022/11/10 01:55:02;;;;;;;15.55;4.10;;;;;;;;;;5054376;28;20028;-74
2022/11/10 01:57:27;;;;;;;14.65;4.63;;;;;;;;;;5071434;28;20029;-74
2022/11/10 01:59:53;;;;;;;13.18;4.57;;;;;;;;;;5071453;28;21439;-74
2022/11/10 02:02:25;;;;;;;11.02;3.30;;;;;;;;;;5072837;28;20044;-75
2022/11/10 02:04:51;;;;;;;11.77;4.07;;;;;;;;;;5070868;28;20021;-77
2022/11/10 02:07:17;;;;;;;12.43;4.28;;;;;;;;;;5060378;28;20374;-74
2022/11/10 02:09:42;;;;;;;16.95;4.25;;;;;;;;;;5071621;28;20040;-74
2022/11/10 02:12:07;;;;;;;14.02;3.78;;;;;;;;;;5071533;28;20028;-77
2022/11/10 02:14:33;;;;;;;12.13;4.57;;;;;;;;;;5071378;28;20048;-76
2022/11/10 02:16:58;;;;;;;13.27;3.88;;;;;;;;;;5070585;28;20020;-76
2022/11/10 02:19:24;;;;;;;18.63;5.03;;;;;;;;;;5072108;28;20025;-75
2022/11/10 02:21:49;;;;;;;12.73;4.38;;;;;;;;;;5071205;28;20020;-75
2022/11/10 02:24:14;;;;;;;16.40;4.27;;;;;;;;;;5071171;28;20025;-75
2022/11/10 02:26:43;;;;;;;16.55;3.75;;;;;;;;;;5070786;28;20844;-76
2022/11/10 02:29:08;;;;;;;10.90;4.20;;;;;;;;;;5071890;28;20047;-73
2022/11/10 02:31:33;;;;;;;12.40;3.92;;;;;;;;;;5072906;28;20060;-73
2022/11/10 02:33:59;;;;;;;12.90;4.35;;;;;;;;;;5070495;28;20428;-74
2022/11/10 02:36:24;;;;;;;12.67;3.30;;;;;;;;;;5066838;28;20032;-74
2022/11/10 02:38:49;;;;;;;13.27;3.77;;;;;;;;;;5079500;28;20259;-74
2022/11/10 02:41:14;;;;;;;17.95;5.97;;;;;;;;;;5083515;28;20335;-75
2022/11/10 02:43:40;;;;;;;9.93;3.93;;;;;;;;;;5070699;28;20103;-74
2022/11/10 02:46:05;;;;;;;10.98;3.63;;;;;;;;;;5082349;28;20370;-75
2022/11/10 02:48:30;;;;;;;12.20;4.38;;;;;;;;;;5070844;28;20115;-74
2022/11/10 02:50:55;;;;;;;10.60;4.30;;;;;;;;;;5070113;28;20116;-76
2022/11/10 02:53:21;;;;;;;8.98;3.85;;;;;;;;;;5064215;28;20060;-76
2022/11/10 02:55:46;;;;;;;11.98;3.78;;;;;;;;;;5067840;28;20027;-76
2022/11/10 02:58:11;;;;;;;13.52;3.97;;;;;;;;;;5056287;28;20048;-77
2022/11/10 03:00:36;;;;;;;13.43;4.60;;;;;;;;;;5062444;28;20036;-77
2022/11/10 03:03:02;;;;;;;15.35;4.18;;;;;;;;;;5074003;28;21162;-79
2022/11/10 03:05:28;;;;;;;13.30;3.60;;;;;;;;;;5075476;28;20059;-77
2022/11/10 03:07:54;;;;;;;11.32;3.75;;;;;;;;;;5083883;28;20681;-79
2022/11/10 03:10:19;;;;;;;13.35;4.50;;;;;;;;;;5069764;28;20128;-76
2022/11/10 03:12:44;;;;;;;10.20;3.72;;;;;;;;;;5083079;28;20540;-76
2022/11/10 03:15:11;;;;;;;10.02;4.32;;;;;;;;;;5075489;28;20069;-74
2022/11/10 03:17:37;;;;;;;19.48;4.13;;;;;;;;;;5073357;28;20089;-75
2022/11/10 03:20:02;;;;;;;13.38;3.88;;;;;;;;;;5068519;28;20422;-77
2022/11/10 03:22:28;;;;;;;19.02;4.00;;;;;;;;;;5069154;28;20016;-76
2022/11/10 03:24:53;;;;;;;11.37;4.57;;;;;;;;;;5070582;28;20024;-74
2022/11/10 03:27:18;;;;;;;12.82;4.60;;;;;;;;;;5079472;28;20346;-74
2022/11/10 03:29:43;;;;;;;11.67;4.90;;;;;;;;;;5070142;28;20060;-75
2022/11/10 03:32:09;;;;;;;15.53;4.60;;;;;;;;;;5079938;28;20358;-75
2022/11/10 03:34:34;;;;;;;11.55;4.07;;;;;;;;;;5070162;28;20302;-75
2022/11/10 03:36:59;;;;;;;13.63;4.30;;;;;;;;;;5072888;28;20024;-74
2022/11/10 03:39:24;;;;;;;14.07;4.40;;;;;;;;;;5078689;28;20477;-75
2022/11/10 03:41:50;;;;;;;12.93;3.95;;;;;;;;;;5069672;28;20270;-78
2022/11/10 03:44:15;;;;;;;19.73;4.97;;;;;;;;;;5078997;28;20136;-77
2022/11/10 03:46:40;;;;;;;16.93;5.17;;;;;;;;;;5062032;28;20029;-75
2022/11/10 03:49:05;;;;;;;11.03;4.27;;;;;;;;;;5067982;28;20336;-75
2022/11/10 03:51:30;;;;;;;11.95;3.58;;;;;;;;;;5071711;28;20274;-75
2022/11/10 03:53:56;;;;;;;14.80;5.60;;;;;;;;;;5081453;28;20016;-75
2022/11/10 03:56:21;;;;;;;16.35;3.60;;;;;;;;;;5055022;28;20278;-74
2022/11/10 03:58:46;;;;;;;9.67;3.50;;;;;;;;;;5069425;28;20016;-73
2022/11/10 04:01:12;;;;;;;11.50;4.18;;;;;;;;;;5068298;28;20282;-76
2022/11/10 04:03:37;;;;;;;14.30;4.13;;;;;;;;;;5072990;28;20024;-75
2022/11/10 04:08:58;;;;;;;23.42;4.90;;;;;;;;;;5066650;28;20089;-76
2022/11/10 04:16:52;;;;;;;18.17;4.57;;;;;;;;;;5051241;28;20048;-75
2022/11/10 04:19:17;;;;;;;12.48;3.92;;;;;;;;;;5067209;28;20020;-76
2022/11/10 04:21:42;;;;;;;14.23;3.78;;;;;;;;;;5065736;28;20067;-75
2022/11/10 04:24:08;;;;;;;13.43;4.32;;;;;;;;;;5074669;28;20049;-75
2022/11/10 04:26:36;;;;;;;15.77;3.97;;;;;;;;;;5068287;28;20056;-74
2022/11/10 04:29:03;;;;;;;10.85;3.75;;;;;;;;;;5065087;28;20040;-74
2022/11/10 04:31:30;;;;;;;11.55;4.00;;;;;;;;;;5065251;28;20078;-75
2022/11/10 04:33:56;;;;;;;14.73;4.30;;;;;;;;;;5064048;28;20016;-74
2022/11/10 04:36:23;;;;;;;15.93;4.57;;;;;;;;;;5063266;28;20032;-73
2022/11/10 04:38:48;;;;;;;15.30;4.50;;;;;;;;;;5054739;28;20024;-74
2022/11/10 04:41:14;;;;;;;10.80;3.80;;;;;;;;;;5067292;28;20441;-75
2022/11/10 04:43:40;;;;;;;9.73;3.72;;;;;;;;;;5064204;28;20457;-77
2022/11/10 04:46:06;;;;;;;19.40;4.10;;;;;;;;;;5066976;28;20030;-76
2022/11/10 04:48:31;;;;;;;14.68;4.05;;;;;;;;;;5055687;28;20028;-76
2022/11/10 04:51:01;;;;;;;18.02;4.15;;;;;;;;;;5069421;28;20774;-76
2022/11/10 04:53:26;;;;;;;19.13;4.32;;;;;;;;;;5063788;28;20085;-76
2022/11/10 04:55:52;;;;;;;11.82;3.97;;;;;;;;;;5059042;28;20029;-75
2022/11/10 04:58:17;;;;;;;18.70;4.32;;;;;;;;;;5066857;28;20017;-74
2022/11/10 05:00:43;;;;;;;19.88;4.80;;;;;;;;;;5074525;28;20033;-74
2022/11/10 05:03:09;;;;;;;13.18;4.40;;;;;;;;;;5070892;28;20050;-73
2022/11/10 05:05:34;;;;;;;15.93;4.88;;;;;;;;;;5074039;28;20115;-75
2022/11/10 05:07:59;;;;;;;12.68;3.90;;;;;;;;;;5075418;28;20111;-75
2022/11/10 05:10:25;;;;;;;11.68;3.75;;;;;;;;;;5074939;28;20398;-76
2022/11/10 05:12:54;;;;;;;11.30;4.32;;;;;;;;;;5068201;28;20031;-76
2022/11/10 05:15:19;;;;;;;15.35;4.88;;;;;;;;;;5065381;28;20019;-76
2022/11/10 05:17:46;;;;;;;14.02;3.97;;;;;;;;;;5074570;28;20020;-76
2022/11/10 05:20:12;;;;;;;15.40;3.72;;;;;;;;;;5073011;28;20024;-77
2022/11/10 05:22:37;;;;;;;14.82;4.55;;;;;;;;;;5074362;28;20847;-76
2022/11/10 05:25:02;;;;;;;22.58;4.57;;;;;;;;;;5074326;28;20051;-76
2022/11/10 05:27:28;;;;;;;11.75;4.22;;;;;;;;;;5070783;28;20020;-79
2022/11/10 05:29:54;;;;;;;12.55;4.72;;;;;;;;;;5074580;28;20107;-78
2022/11/10 05:32:19;;;;;;;14.18;4.22;;;;;;;;;;5071678;28;20107;-78
2022/11/10 05:34:44;;;;;;;16.25;4.03;;;;;;;;;;5074084;28;20029;-72
2022/11/10 05:37:10;;;;;;;12.50;3.93;;;;;;;;;;5070660;28;20564;-75
2022/11/10 05:39:35;;;;;;;19.35;3.92;;;;;;;;;;5080457;28;20270;-77
2022/11/10 05:42:00;;;;;;;24.47;5.07;;;;;;;;;;5077560;28;20426;-75
2022/11/10 05:44:25;;;;;;;16.73;4.13;;;;;;;;;;5083488;28;20723;-74
2022/11/10 05:46:50;;;;;;;14.63;4.65;;;;;;;;;;5071645;28;20098;-74
2022/11/10 05:49:16;;;;;;;16.92;4.70;;;;;;;;;;5050168;28;20067;-75
2022/11/10 05:51:42;;;;;;;12.00;4.20;;;;;;;;;;5072770;28;20032;-73
2022/11/10 05:54:07;;;;;;;12.25;4.53;;;;;;;;;;5071201;28;20029;-76
2022/11/10 05:56:33;;;;;;;15.68;4.60;;;;;;;;;;5044820;28;20020;-72
2022/11/10 05:58:58;;;;;;;10.98;4.60;;;;;;;;;;5049382;28;20167;-75
2022/11/10 06:01:23;;;;;;;10.85;4.30;;;;;;;;;;5028572;28;20033;-74
2022/11/10 06:03:48;;;;;;;12.17;3.97;;;;;;;;;;5039745;28;20025;-74
2022/11/10 06:06:13;;;;;;;13.85;3.90;;;;;;;;;;5037128;28;20340;-75
2022/11/10 06:08:39;;;;;;;13.30;5.03;;;;;;;;;;5037011;28;20035;-80
2022/11/10 06:11:04;;;;;;;29.63;5.35;;;;;;;;;;5033071;28;20889;-75
2022/11/10 06:13:29;;;;;;;17.13;4.82;;;;;;;;;;5037601;28;20810;-75
2022/11/10 06:15:55;;;;;;;13.73;4.57;;;;;;;;;;5040291;28;20553;-75
2022/11/10 06:18:20;;;;;;;12.77;4.57;;;;;;;;;;5052380;28;20459;-76
2022/11/10 06:20:46;;;;;;;10.63;4.75;;;;;;;;;;5061934;28;20768;-72
2022/11/10 06:23:12;;;;;;;10.27;4.60;;;;;;;;;;5055856;28;20024;-73
2022/11/10 06:25:38;;;;;;;12.02;4.25;;;;;;;;;;5059909;28;20025;-75
2022/11/10 06:28:04;;;;;;;17.20;4.63;;;;;;;;;;5060289;28;20024;-74
2022/11/10 06:30:31;;;;;;;15.40;4.35;;;;;;;;;;5062309;28;20090;-73
2022/11/10 06:32:56;;;;;;;16.05;4.03;;;;;;;;;;5059715;28;20028;-73
2022/11/10 06:35:22;;;;;;;12.00;4.38;;;;;;;;;;5060952;28;20016;-74
2022/11/10 06:38:00;;;;;;;11.20;3.67;;;;;;;;;;5058502;28;20052;-73
2022/11/10 06:40:26;;;;;;;13.32;4.03;;;;;;;;;;5054431;28;20052;-73
2022/11/10 06:42:51;;;;;;;21.45;4.80;;;;;;;;;;5061445;28;20107;-75
2022/11/10 06:45:16;;;;;;;17.55;4.35;;;;;;;;;;5072836;28;20020;-74
2022/11/10 06:47:41;;;;;;;11.82;4.28;;;;;;;;;;5052623;28;20792;-76
2022/11/10 06:50:07;;;;;;;13.13;3.73;;;;;;;;;;5059933;28;20101;-76
2022/11/10 06:52:32;;;;;;;12.10;4.80;;;;;;;;;;5058440;28;20377;-76
2022/11/10 06:54:57;;;;;;;17.08;4.32;;;;;;;;;;5058134;28;20482;-75
2022/11/10 06:57:23;;;;;;;20.25;3.75;;;;;;;;;;5063493;28;20035;-75
2022/11/10 06:59:48;;;;;;;13.10;4.20;;;;;;;;;;5061113;28;20498;-75
2022/11/10 07:02:14;;;;;;;13.75;4.15;;;;;;;;;;5044962;28;20927;-75
2022/11/10 07:04:39;;;;;;;12.95;4.25;;;;;;;;;;5037251;28;20226;-76
2022/11/10 07:07:04;;;;;;;17.13;4.28;;;;;;;;;;5031208;28;20028;-75
2022/11/10 07:09:30;;;;;;;11.13;4.23;;;;;;;;;;5023740;28;20557;-75
2022/11/10 07:11:56;;;;;;;13.07;4.38;;;;;;;;;;5033737;28;21221;-72
2022/11/10 07:14:21;;;;;;;22.60;5.47;;;;;;;;;;5031434;28;20012;-73
2022/11/10 07:16:46;;;;;;;23.10;4.70;;;;;;;;;;5032461;28;20877;-73
2022/11/10 07:19:11;;;;;;;12.43;4.50;;;;;;;;;;5034221;28;20131;-73
2022/11/10 07:21:37;;;;;;;19.40;5.07;;;;;;;;;;5028929;28;20343;-75
2022/11/10 07:24:02;;;;;;;16.88;4.47;;;;;;;;;;5031702;28;20031;-75
2022/11/10 07:26:27;;;;;;;8.75;4.25;;;;;;;;;;5026779;28;20017;-75
2022/11/10 07:28:52;;;;;;;15.45;4.40;;;;;;;;;;5038292;28;20546;-75
2022/11/10 07:31:18;;;;;;;20.17;4.28;;;;;;;;;;5028798;28;20060;-75
2022/11/10 07:33:44;;;;;;;19.97;5.70;;;;;;;;;;5037803;28;20055;-76
2022/11/10 07:36:09;;;;;;;11.43;5.15;;;;;;;;;;5037636;28;21165;-76
2022/11/10 07:38:35;;;;;;;13.25;4.00;;;;;;;;;;5047662;28;20016;-75
2022/11/10 07:41:00;;;;;;;14.20;4.43;;;;;;;;;;5032019;28;20074;-76
2022/11/10 07:43:25;;;;;;;13.15;4.50;;;;;;;;;;5031304;28;20023;-75
2022/11/10 07:45:51;;;;;;;15.98;4.85;;;;;;;;;;5031485;28;20024;-78
2022/11/10 07:48:16;;;;;;;18.08;4.72;;;;;;;;;;5017729;28;20044;-80
2022/11/10 07:50:42;;;;;;;15.23;4.47;;;;;;;;;;5030784;28;20025;-76
2022/11/10 07:53:16;;;;;;;14.88;4.70;;;;;;;;;;5039277;28;20029;-76
2022/11/10 07:55:43;;;;;;;14.70;4.82;;;;;;;;;;5064208;28;20489;-73
2022/11/10 07:58:09;;;;;;;16.83;4.90;;;;;;;;;;5042862;28;20020;-73
2022/11/10 08:00:35;;;;;;;14.65;3.88;;;;;;;;;;5051127;28;20086;-74
2022/11/10 08:03:04;;;;;;;16.25;4.32;;;;;;;;;;5040903;28;20019;-76
2022/11/10 08:05:30;;;;;;;16.80;5.35;;;;;;;;;;5047731;28;20025;-76
2022/11/10 08:07:55;;;;;;;17.02;5.30;;;;;;;;;;5052138;28;20079;-75
2022/11/10 08:10:20;;;;;;;15.65;4.88;;;;;;;;;;5051855;28;20021;-75
2022/11/10 08:12:51;;;;;;;17.60;5.70;;;;;;;;;;5044804;28;20073;-76
2022/11/10 08:15:17;;;;;;;17.85;4.70;;;;;;;;;;5053572;28;20028;-71
2022/11/10 08:17:42;;;;;;;19.55;4.07;;;;;;;;;;5049941;28;20042;-74
2022/11/10 08:20:08;;;;;;;17.93;4.77;;;;;;;;;;5059945;28;20026;-74
2022/11/10 08:22:33;;;;;;;15.23;4.78;;;;;;;;;;5059607;28;20278;-73
2022/11/10 08:24:58;;;;;;;16.05;4.05;;;;;;;;;;5058711;28;20894;-73
2022/11/10 08:27:23;;;;;;;12.38;4.82;;;;;;;;;;5055447;28;20027;-75
2022/11/10 08:29:49;;;;;;;14.98;4.40;;;;;;;;;;5049922;28;20024;-76
2022/11/10 08:32:14;;;;;;;16.60;4.40;;;;;;;;;;5061759;28;20027;-76
2022/11/10 08:34:39;;;;;;;12.93;4.90;;;;;;;;;;5055793;28;20267;-75
2022/11/10 08:37:04;;;;;;;17.47;4.47;;;;;;;;;;5062085;28;20027;-73
2022/11/10 08:39:30;;;;;;;23.50;5.37;;;;;;;;;;5057241;28;20305;-74
2022/11/10 08:41:55;;;;;;;26.27;5.00;;;;;;;;;;5054428;28;20267;-73
2022/11/10 08:44:20;;;;;;;15.10;3.78;;;;;;;;;;5053057;28;20046;-74
2022/11/10 08:46:45;;;;;;;15.75;4.18;;;;;;;;;;5058686;28;20497;-74
2022/11/10 08:49:11;;;;;;;15.65;4.47;;;;;;;;;;5057666;28;20427;-73
2022/11/10 08:51:36;;;;;;;10.55;3.72;;;;;;;;;;5059253;28;20024;-73
2022/11/10 08:54:01;;;;;;;16.10;4.43;;;;;;;;;;5062012;28;20024;-75
2022/11/10 08:56:26;;;;;;;17.50;4.90;;;;;;;;;;5046476;28;20128;-72
2022/11/10 08:58:53;;;;;;;15.37;4.43;;;;;;;;;;5055930;28;21216;-72
2022/11/10 09:01:18;;;;;;;13.80;4.45;;;;;;;;;;5050743;28;20267;-76
2022/11/10 09:03:43;;;;;;;11.10;4.15;;;;;;;;;;5050686;28;20125;-73
2022/11/10 09:06:08;;;;;;;16.27;3.67;;;;;;;;;;5056934;28;20748;-73
2022/11/10 09:08:34;;;;;;;14.75;3.90;;;;;;;;;;5047477;28;20636;-75
2022/11/10 09:11:03;;;;;;;13.53;4.23;;;;;;;;;;5056495;28;20934;-73
2022/11/10 09:13:28;;;;;;;13.35;3.83;;;;;;;;;;5046789;28;20376;-75
2022/11/10 09:15:53;;;;;;;11.20;3.90;;;;;;;;;;5054504;28;20814;-71
2022/11/10 09:18:19;;;;;;;19.35;4.78;;;;;;;;;;5054306;28;20810;-73
2022/11/10 09:20:44;;;;;;;9.17;3.77;;;;;;;;;;5054352;28;20025;-73
2022/11/10 09:23:10;;;;;;;13.30;4.55;;;;;;;;;;5047778;28;20271;-75
2022/11/10 09:25:36;;;;;;;13.52;4.10;;;;;;;;;;5060408;28;20027;-73
2022/11/10 09:28:02;;;;;;;13.82;4.13;;;;;;;;;;5050333;28;20021;-74
2022/11/10 09:30:27;;;;;;;11.10;3.88;;;;;;;;;;5054650;28;20028;-74
2022/11/10 09:32:56;;;;;;;11.60;4.25;;;;;;;;;;5053984;28;20124;-74
2022/11/10 09:35:22;;;;;;;12.68;4.40;;;;;;;;;;5054240;28;20013;-76
2022/11/10 09:37:47;;;;;;;14.35;3.95;;;;;;;;;;5071847;28;20075;-78
2022/11/10 09:40:23;;;;;;;8.67;3.73;;;;;;;;;;5059373;28;20025;-78
2022/11/10 09:42:52;;;;;;;9.55;4.05;;;;;;;;;;5041082;28;20283;-79
2022/11/10 09:45:32;;;;;;;22.25;4.72;;;;;;;;;;5068639;28;20135;-76
2022/11/10 09:48:03;;;;;;;13.25;4.20;;;;;;;;;;5044340;28;20020;-75
2022/11/10 09:50:38;;;;;;;14.82;4.88;;;;;;;;;;5052375;28;20487;-74
2022/11/10 09:53:04;;;;;;;12.35;3.67;;;;;;;;;;5046976;28;20025;-77
2022/11/10 09:55:47;;;;;;;17.88;4.80;;;;;;;;;;5043314;28;20488;-75
2022/11/10 09:58:13;;;;;;;14.63;4.88;;;;;;;;;;5040379;28;20085;-73
2022/11/10 10:00:39;;;;;;;13.57;4.70;;;;;;;;;;5065912;28;20025;-76
2022/11/10 10:03:05;;;;;;;17.05;5.18;;;;;;;;;;5052490;28;20046;-74
2022/11/10 10:05:30;;;;;;;15.27;4.28;;;;;;;;;;5063914;28;20024;-75
2022/11/10 10:08:10;;;;;;;7.57;3.67;;;;;;;;;;5052882;28;20107;-76
2022/11/10 10:10:35;;;;;;;13.88;4.07;;;;;;;;;;5048965;28;20291;-77
2022/11/10 10:13:00;;;;;;;12.77;4.17;;;;;;;;;;5046241;28;20468;-78
2022/11/10 10:15:52;;;;;;;8.57;3.53;;;;;;;;;;5050832;28;20278;-76
2022/11/10 10:18:36;;;;;;;16.77;4.85;;;;;;;;;;5048531;28;20287;-75
2022/11/10 10:21:10;;;;;;;13.60;3.70;;;;;;;;;;5049493;28;20081;-77
2022/11/10 10:23:36;;;;;;;8.10;3.80;;;;;;;;;;5052634;28;20873;-78
2022/11/10 10:26:02;;;;;;;10.48;3.80;;;;;;;;;;5034590;28;20028;-76
2022/11/10 10:28:32;;;;;;;20.33;4.53;;;;;;;;;;5042035;28;20029;-80
2022/11/10 10:31:12;;;;;;;11.43;4.03;;;;;;;;;;5035546;28;20546;-77
2022/11/10 10:33:38;;;;;;;9.18;3.92;;;;;;;;;;5058048;28;20089;-75
2022/11/10 10:36:09;;;;;;;9.15;4.07;;;;;;;;;;5028139;28;20024;-75
2022/11/10 10:38:36;;;;;;;10.73;3.13;;;;;;;;;;5032392;28;20173;-77
2022/11/10 10:41:23;;;;;;;9.60;4.13;;;;;;;;;;5039416;28;20566;-77
2022/11/10 10:43:49;;;;;;;15.18;4.20;;;;;;;;;;5036748;28;20115;-76
2022/11/10 10:46:15;;;;;;;9.25;3.50;;;;;;;;;;5039483;28;20043;-78
2022/11/10 10:48:40;;;;;;;17.15;4.03;;;;;;;;;;5046864;28;20031;-74
2022/11/10 10:51:05;;;;;;;16.25;3.67;;;;;;;;;;5037062;28;20130;-78
2022/11/10 10:53:31;;;;;;;15.05;3.97;;;;;;;;;;5046146;28;20788;-74
2022/11/10 10:55:59;;;;;;;12.80;4.15;;;;;;;;;;5032887;28;20758;-78
2022/11/10 10:58:24;;;;;;;12.13;3.22;;;;;;;;;;5023864;28;20580;-80
2022/11/10 11:00:51;;;;;;;8.95;3.22;;;;;;;;;;5047928;28;20024;-79
2022/11/10 11:03:36;;;;;;;12.00;3.28;;;;;;;;;;5043836;28;20097;-79
2022/11/10 11:06:07;;;;;;;10.85;3.25;;;;;;;;;;5045559;28;20103;-76
2022/11/10 11:08:32;;;;;;;10.68;3.50;;;;;;;;;;5046862;28;20059;-78
2022/11/10 11:11:05;;;;;;;12.27;3.83;;;;;;;;;;5061945;28;20042;-74
2022/11/10 11:13:30;;;;;;;8.95;3.90;;;;;;;;;;5068090;28;20029;-75
2022/11/10 11:16:03;;;;;;;7.43;3.30;;;;;;;;;;5038172;28;20027;-76
2022/11/10 11:18:29;;;;;;;9.05;3.58;;;;;;;;;;5041001;28;20279;-77
2022/11/10 11:21:13;;;;;;;11.18;3.25;;;;;;;;;;5040570;28;20048;-76
2022/11/10 11:23:38;;;;;;;8.87;3.27;;;;;;;;;;5039591;28;20123;-76
2022/11/10 11:26:11;;;;;;;6.33;2.60;;;;;;;;;;5038388;28;20016;-73
2022/11/10 11:28:53;;;;;;;6.63;2.72;;;;;;;;;;5043407;28;20044;-74
2022/11/10 11:31:19;;;;;;;6.82;2.55;;;;;;;;;;5052954;28;20020;-74
2022/11/10 11:33:47;;;;;;;7.80;3.00;;;;;;;;;;5028193;28;20978;-73
2022/11/10 11:36:23;;;;;;;8.52;2.75;;;;;;;;;;5026209;28;20330;-74
2022/11/10 11:39:03;;;;;;;10.80;2.95;;;;;;;;;;5024000;28;20098;-73
2022/11/10 11:41:33;;;;;;;13.05;2.45;;;;;;;;;;5035517;28;20020;-74
2022/11/10 11:44:11;;;;;;;10.65;3.70;;;;;;;;;;5031037;28;20021;-74
2022/11/10 11:46:49;;;;;;;12.55;3.10;;;;;;;;;;5033834;28;20020;-75
2022/11/10 11:49:26;;;;;;;7.30;3.30;;;;;;;;;;5042085;28;20043;-75
2022/11/10 11:51:55;;;;;;;20.70;3.35;;;;;;;;;;5044856;28;20089;-75
2022/11/10 11:54:47;;;;;;;7.18;2.83;;;;;;;;;;5032461;28;20018;-71
2022/11/10 11:57:22;;;;;;;13.25;3.42;;;;;;;;;;5021060;28;20076;-76
2022/11/10 12:00:22;;;;;;;6.93;2.78;;;;;;;;;;5032196;28;20051;-74
2022/11/10 12:03:15;;;;;;;11.05;3.30;;;;;;;;;;5006995;28;20949;-78
2022/11/10 12:05:59;;;;;;;13.68;2.80;;;;;;;;;;5039111;28;20657;-73
2022/11/10 12:08:41;;;;;;;16.30;3.35;;;;;;;;;;5039484;28;20047;-77
2022/11/10 12:11:25;;;;;;;14.77;2.53;;;;;;;;;;5028395;28;20172;-77
2022/11/10 12:14:02;;;;;;;7.00;2.88;;;;;;;;;;5047613;28;21104;-75
2022/11/10 12:16:29;;;;;;;5.18;2.25;;;;;;;;;;5048226;28;20143;-74
2022/11/10 12:18:54;;;;;;;7.47;3.00;;;;;;;;;;5022041;28;20013;-76
2022/11/10 12:21:38;;;;;;;7.72;2.95;;;;;;;;;;5040015;28;20082;-73
2022/11/10 12:24:11;;;;;;;7.17;3.40;;;;;;;;;;5022143;28;20984;-72
2022/11/10 12:26:59;;;;;;;10.48;3.63;;;;;;;;;;5056672;28;20840;-73
2022/11/10 12:29:43;;;;;;;13.02;3.22;;;;;;;;;;5036889;28;20040;-76
2022/11/10 12:32:14;;;;;;;5.53;2.50;;;;;;;;;;5035248;28;20009;-74
2022/11/10 12:35:05;;;;;;;9.73;3.17;;;;;;;;;;5045878;28;20546;-75
2022/11/10 12:37:42;;;;;;;7.55;2.13;;;;;;;;;;5029817;28;20178;-75
2022/11/10 12:40:19;;;;;;;10.73;2.65;;;;;;;;;;5032309;28;20053;-77
2022/11/10 12:42:46;;;;;;;8.75;2.97;;;;;;;;;;5053385;28;20028;-76
2022/11/10 12:45:20;;;;;;;5.20;2.60;;;;;;;;;;5038099;28;20025;-75
2022/11/10 12:47:45;;;;;;;7.47;2.45;;;;;;;;;;5047587;28;20047;-76
2022/11/10 12:50:26;;;;;;;5.28;2.70;;;;;;;;;;5048044;28;20356;-77
2022/11/10 12:52:56;;;;;;;7.75;2.70;;;;;;;;;;5044508;28;20028;-74
2022/11/10 12:55:30;;;;;;;8.02;2.65;;;;;;;;;;5035925;28;20067;-75
2022/11/10 12:57:55;;;;;;;10.35;2.70;;;;;;;;;;5047892;28;20031;-75
2022/11/10 13:00:23;;;;;;;8.20;2.60;;;;;;;;;;5032376;28;20215;-75
2022/11/10 13:02:49;;;;;;;6.47;2.88;;;;;;;;;;5044405;28;20897;-75
2022/11/10 13:05:14;;;;;;;10.73;3.25;;;;;;;;;;5039972;28;20021;-72
2022/11/10 13:07:47;;;;;;;8.77;3.30;;;;;;;;;;5027996;28;20035;-74
2022/11/10 13:10:26;;;;;;;8.40;3.17;;;;;;;;;;5036588;28;20409;-73
2022/11/10 13:13:04;;;;;;;9.82;3.25;;;;;;;;;;5034729;28;20104;-74
2022/11/10 13:15:35;;;;;;;7.18;2.85;;;;;;;;;;5041179;28;20029;-75
2022/11/10 13:18:01;;;;;;;13.88;3.15;;;;;;;;;;5033172;28;20583;-75
2022/11/10 13:20:38;;;;;;;6.00;3.05;;;;;;;;;;5032423;28;20036;-76
2022/11/10 13:23:23;;;;;;;8.55;3.08;;;;;;;;;;5044788;28;20834;-74
2022/11/10 13:25:54;;;;;;;6.53;2.72;;;;;;;;;;5046637;28;20067;-75
2022/11/10 13:28:38;;;;;;;6.47;2.58;;;;;;;;;;5051604;28;20870;-77
2022/11/10 13:31:22;;;;;;;6.95;3.03;;;;;;;;;;5043262;28;20016;-73
2022/11/10 13:34:06;;;;;;;12.15;2.92;;;;;;;;;;5053636;28;20020;-75
2022/11/10 13:36:42;;;;;;;9.43;2.87;;;;;;;;;;5029735;28;20017;-78
2022/11/10 13:39:19;;;;;;;7.43;2.40;;;;;;;;;;5058325;28;20621;-75
2022/11/10 13:41:44;;;;;;;8.18;2.55;;;;;;;;;;5065904;28;20020;-74
2022/11/10 13:44:22;;;;;;;12.97;2.50;;;;;;;;;;5061241;28;20386;-75
2022/11/10 13:46:56;;;;;;;7.72;2.95;;;;;;;;;;5064069;28;20032;-75
2022/11/10 13:49:41;;;;;;;5.50;2.53;;;;;;;;;;5057004;28;20028;-74
2022/11/10 13:52:06;;;;;;;8.63;2.90;;;;;;;;;;5052654;28;20037;-74
2022/11/10 13:54:35;;;;;;;11.07;2.53;;;;;;;;;;5046936;28;20033;-74
2022/11/10 13:57:06;;;;;;;12.02;2.70;;;;;;;;;;5053221;28;20467;-74
2022/11/10 13:59:41;;;;;;;8.35;2.42;;;;;;;;;;5059889;28;20424;-74
2022/11/10 14:02:25;;;;;;;8.93;2.28;;;;;;;;;;5060727;28;20032;-73
2022/11/10 14:04:50;;;;;;;9.07;2.72;;;;;;;;;;5057268;28;20044;-73
2022/11/10 14:07:17;;;;;;;10.30;2.90;;;;;;;;;;5054889;28;20071;-74
2022/11/10 14:09:49;;;;;;;5.78;2.08;;;;;;;;;;5050036;28;20017;-74
2022/11/10 14:12:14;;;;;;;8.85;2.95;;;;;;;;;;5060619;28;20074;-74
2022/11/10 14:14:48;;;;;;;8.03;2.57;;;;;;;;;;5065448;28;20032;-74
2022/11/10 14:17:20;;;;;;;7.47;2.45;;;;;;;;;;5053262;28;20027;-74
2022/11/10 14:19:45;;;;;;;5.45;2.40;;;;;;;;;;5066245;28;20418;-70
2022/11/10 14:22:33;;;;;;;12.65;2.75;;;;;;;;;;5059458;28;20017;-68
2022/11/10 14:25:17;;;;;;;8.68;2.65;;;;;;;;;;5069796;28;20013;-74
2022/11/10 14:27:43;;;;;;;5.72;2.35;;;;;;;;;;5068623;28;20044;-72
2022/11/10 14:30:20;;;;;;;5.90;2.03;;;;;;;;;;5071611;28;20024;-71
2022/11/10 14:32:55;;;;;;;9.82;2.63;;;;;;;;;;5068062;28;20020;-70
2022/11/10 14:35:22;;;;;;;10.50;2.45;;;;;;;;;;5056051;28;20486;-72
2022/11/10 14:37:48;;;;;;;6.25;2.80;;;;;;;;;;5044857;28;20032;-75
2022/11/10 14:40:15;;;;;;;6.55;2.47;;;;;;;;;;5062269;28;20039;-75
2022/11/10 14:42:43;;;;;;;9.45;3.00;;;;;;;;;;5067953;28;20055;-74
2022/11/10 14:45:17;;;;;;;17.33;3.08;;;;;;;;;;5069118;28;20029;-78
2022/11/10 14:47:42;;;;;;;10.25;2.60;;;;;;;;;;5052953;28;20022;-73
2022/11/10 14:50:14;;;;;;;13.07;2.70;;;;;;;;;;5057903;28;20489;-74